Capitol Logistics 3261




KTPA
Tampa International Airport
Tampa, Florida
KMIA
Miami International Airport
Miami, Florida

Activity Log

Date Flight Route Aircraft Duration
03/23/2021 CPX3261 PIE V35 CURVE ANGRO SF34 1h 00m
04/08/2020 CPX3261 GANDY8 SABEE CYY CYY9 SF34 1h 33m
11/19/2019 CPX3261 GANDY8 SABEE CYY CYY9 SF34 1h 04m
11/03/2019 CPX661 GANDY8 SABEE CYY CYY9 SF34 1h 26m

Route Details

Aircraft Information
Primary: Saab 340AF
Backup: Not Available
Route Data
Distance: 177nm
Duration: 1h 25m
Recm'd Route: GANDY8 SABEE CYY CYY9
Origin Wx: KTPA 141953Z 25007KT 10SM FEW050 30/15 A3004 RMK AO2 SLP172 T03000150 $
Dest. Wx: KMIA 141953Z 11013KT 10SM FEW040 27/17 A3005 RMK AO2 SLP177 T02720172 $
Notes: